Time;durP1;ratioP1;P1;durP2;ratioP2;P2;SDS_P1;SDS_P2;PMS_P1;PMS_P2;Temp;Humidity;BMP_temperature;BMP_pressure;BME280_temperature;BME280_humidity;BME280_pressure;Samples;Min_cycle;Max_cycle;Signal;HPM_P1;HPM_P2
2023/05/11 00:00:34;;;;;;;;;;;12.90;99.90;;;;;;5085764;28;19966;-39
2023/05/11 00:03:01;;;;;;;;;;;12.90;99.90;;;;;;5096772;28;20007;-38
2023/05/11 00:05:27;;;;;;;;;;;12.90;99.90;;;;;;5102149;28;19959;-39
2023/05/11 00:07:54;;;;;;;;;;;12.90;99.90;;;;;;5099155;28;19944;-39
2023/05/11 00:10:21;;;;;;;;;;;12.90;99.90;;;;;;5077640;28;19952;-39
2023/05/11 00:12:49;;;;;;;;;;;12.80;99.90;;;;;;5099529;28;20008;-39
2023/05/11 00:15:15;;;;;;;;;;;12.80;99.90;;;;;;5096950;28;19987;-38
2023/05/11 00:17:42;;;;;;;;;;;12.80;99.90;;;;;;5107582;28;19941;-38
2023/05/11 00:20:09;;;;;;;;;;;12.80;99.90;;;;;;5105174;27;20032;-38
2023/05/11 00:22:36;;;;;;;;;;;12.80;99.90;;;;;;5112423;28;19947;-38
2023/05/11 00:25:03;;;;;;;;;;;12.80;99.90;;;;;;5086572;28;19950;-38
2023/05/11 00:27:30;;;;;;;;;;;12.80;99.90;;;;;;5104813;28;19938;-38
2023/05/11 00:29:58;;;;;;;;;;;12.80;99.90;;;;;;5115266;28;19954;-39
2023/05/11 00:32:24;;;;;;;;;;;12.80;99.90;;;;;;5097222;28;20019;-38
2023/05/11 00:34:51;;;;;;;;;;;12.70;99.90;;;;;;5084126;28;19946;-38
2023/05/11 00:37:17;;;;;;;;;;;12.70;99.90;;;;;;5102881;28;20372;-38
2023/05/11 00:39:44;;;;;;;;;;;12.70;99.90;;;;;;5099707;28;19942;-38
2023/05/11 00:42:11;;;;;;;;;;;12.60;99.90;;;;;;5076443;28;20009;-39
2023/05/11 00:44:37;;;;;;;;;;;12.60;99.90;;;;;;5111655;28;19936;-39
2023/05/11 00:47:05;;;;;;;;;;;12.70;99.90;;;;;;5090008;28;20024;-38
2023/05/11 00:49:32;;;;;;;;;;;12.60;99.90;;;;;;5108647;28;20387;-38
2023/05/11 00:52:01;;;;;;;;;;;12.70;99.90;;;;;;5080484;28;19942;-38
2023/05/11 00:54:28;;;;;;;;;;;12.60;99.90;;;;;;5109230;28;19945;-39
2023/05/11 00:56:55;;;;;;;;;;;12.60;99.90;;;;;;5094731;28;19980;-38
2023/05/11 00:59:21;;;;;;;;;;;12.60;99.90;;;;;;5105863;28;19946;-39
2023/05/11 01:01:48;;;;;;;;;;;12.60;99.90;;;;;;5091123;28;20415;-39
2023/05/11 01:04:16;;;;;;;;;;;12.60;99.90;;;;;;5082624;28;19937;-38
2023/05/11 01:06:45;;;;;;;;;;;12.60;99.90;;;;;;5096225;28;20006;-39
2023/05/11 01:09:15;;;;;;;;;;;12.60;99.90;;;;;;5103143;28;19942;-39
2023/05/11 01:11:42;;;;;;;;;;;12.60;99.90;;;;;;5095909;28;19973;-38
2023/05/11 01:14:14;;;;;;;;;;;12.50;99.90;;;;;;5093939;27;19999;-39
2023/05/11 01:16:41;;;;;;;;;;;12.50;99.90;;;;;;5101305;28;19941;-38
2023/05/11 01:19:10;;;;;;;;;;;12.50;99.90;;;;;;5094356;28;19940;-39
2023/05/11 01:21:39;;;;;;;;;;;12.60;99.90;;;;;;5099324;28;19942;-36
2023/05/11 01:24:20;;;;;;;;;;;12.50;99.90;;;;;;5100049;28;20380;-38
2023/05/11 01:26:57;;;;;;;;;;;12.50;99.90;;;;;;5081072;28;19952;-39
2023/05/11 01:29:41;;;;;;;;;;;12.50;99.90;;;;;;5097176;28;20395;-39
2023/05/11 01:32:10;;;;;;;;;;;12.50;99.90;;;;;;5103209;28;19945;-38
2023/05/11 01:34:36;;;;;;;;;;;12.50;99.90;;;;;;5101320;28;19969;-38
2023/05/11 01:37:05;;;;;;;;;;;12.50;99.90;;;;;;5093468;28;19983;-38
2023/05/11 01:39:33;;;;;;;;;;;12.50;99.90;;;;;;5080044;28;19946;-38
2023/05/11 01:41:59;;;;;;;;;;;12.50;99.90;;;;;;5086086;28;19971;-38
2023/05/11 01:44:26;;;;;;;;;;;12.50;99.90;;;;;;5099578;28;19942;-38
2023/05/11 01:46:53;;;;;;;;;;;12.50;99.90;;;;;;5107399;28;20373;-38
2023/05/11 01:49:21;;;;;;;;;;;12.50;99.90;;;;;;5106820;28;20007;-38
2023/05/11 01:51:48;;;;;;;;;;;12.50;99.90;;;;;;5101272;28;20026;-37
2023/05/11 01:54:15;;;;;;;;;;;12.50;99.90;;;;;;5079953;28;19940;-36
2023/05/11 01:56:41;;;;;;;;;;;12.40;99.90;;;;;;5079157;28;20031;-38
2023/05/11 01:59:08;;;;;;;;;;;12.40;99.90;;;;;;5101996;28;20332;-37
2023/05/11 02:01:35;;;;;;;;;;;12.40;99.90;;;;;;5085163;28;19936;-38
2023/05/11 02:04:02;;;;;;;;;;;12.40;99.90;;;;;;5094716;28;19946;-37
2023/05/11 02:06:30;;;;;;;;;;;12.40;99.90;;;;;;5083590;28;19949;-37
2023/05/11 02:08:58;;;;;;;;;;;12.40;99.90;;;;;;5097226;28;19940;-37
2023/05/11 02:11:25;;;;;;;;;;;12.40;99.90;;;;;;5098602;28;19945;-37
2023/05/11 02:13:51;;;;;;;;;;;12.40;99.90;;;;;;5078249;28;19944;-38
2023/05/11 02:16:18;;;;;;;;;;;12.40;99.90;;;;;;5078688;28;20037;-38
2023/05/11 02:18:45;;;;;;;;;;;12.40;99.90;;;;;;5081837;28;19980;-38
2023/05/11 02:21:12;;;;;;;;;;;12.40;99.90;;;;;;5084077;28;19934;-38
2023/05/11 02:23:40;;;;;;;;;;;12.40;99.90;;;;;;5080778;28;20384;-37
2023/05/11 02:26:07;;;;;;;;;;;12.40;99.90;;;;;;5092589;28;19955;-37
2023/05/11 02:28:34;;;;;;;;;;;12.40;99.90;;;;;;5089507;28;20477;-38
2023/05/11 02:31:02;;;;;;;;;;;12.40;99.90;;;;;;5092304;28;19944;-38
2023/05/11 02:33:31;;;;;;;;;;;12.40;99.90;;;;;;5101549;28;20394;-37
2023/05/11 02:35:57;;;;;;;;;;;12.30;99.90;;;;;;5102129;28;19941;-38
2023/05/11 02:38:24;;;;;;;;;;;12.30;99.90;;;;;;5091779;28;20242;-39
2023/05/11 02:40:54;;;;;;;;;;;12.30;99.90;;;;;;5092214;28;19998;-36
2023/05/11 02:43:22;;;;;;;;;;;12.30;99.90;;;;;;5098033;28;19936;-36
2023/05/11 02:45:48;;;;;;;;;;;12.30;99.90;;;;;;5108112;28;20389;-37
2023/05/11 02:48:17;;;;;;;;;;;12.30;99.90;;;;;;5103073;28;20009;-38
2023/05/11 02:50:43;;;;;;;;;;;12.30;99.90;;;;;;5101371;28;19945;-38
2023/05/11 02:53:11;;;;;;;;;;;12.30;99.90;;;;;;5110086;28;19997;-37
2023/05/11 02:55:38;;;;;;;;;;;12.30;99.90;;;;;;5092265;28;19940;-38
2023/05/11 02:58:06;;;;;;;;;;;12.20;99.90;;;;;;5099692;28;20443;-37
2023/05/11 03:00:33;;;;;;;;;;;12.30;99.90;;;;;;5093976;28;19984;-39
2023/05/11 03:02:59;;;;;;;;;;;12.30;99.90;;;;;;5111992;28;19940;-36
2023/05/11 03:05:26;;;;;;;;;;;12.30;99.90;;;;;;5112681;28;19942;-38
2023/05/11 03:07:53;;;;;;;;;;;12.20;99.90;;;;;;5087805;28;19960;-38
2023/05/11 03:10:19;;;;;;;;;;;12.20;99.90;;;;;;5092429;28;19989;-38
2023/05/11 03:12:46;;;;;;;;;;;12.20;99.90;;;;;;5091805;28;20309;-37
2023/05/11 03:15:14;;;;;;;;;;;12.20;99.90;;;;;;5092077;28;19943;-39
2023/05/11 03:17:41;;;;;;;;;;;12.20;99.90;;;;;;5095301;28;19962;-36
2023/05/11 03:20:08;;;;;;;;;;;12.10;99.90;;;;;;5100440;28;19971;-36
2023/05/11 03:22:35;;;;;;;;;;;12.10;99.90;;;;;;5079413;28;19943;-37
2023/05/11 03:25:02;;;;;;;;;;;12.10;99.90;;;;;;5115543;27;19975;-38
2023/05/11 03:27:29;;;;;;;;;;;12.10;99.90;;;;;;5082366;27;20000;-38
2023/05/11 03:29:56;;;;;;;;;;;12.00;99.90;;;;;;5104693;28;20295;-38
2023/05/11 03:32:24;;;;;;;;;;;12.00;99.90;;;;;;5105420;28;19951;-38
2023/05/11 03:34:50;;;;;;;;;;;12.00;99.90;;;;;;5100722;28;20032;-35
2023/05/11 03:37:17;;;;;;;;;;;12.00;99.90;;;;;;5104165;28;20301;-38
2023/05/11 03:39:45;;;;;;;;;;;12.00;99.90;;;;;;5099864;28;19940;-38
2023/05/11 03:42:12;;;;;;;;;;;12.00;99.90;;;;;;5102807;28;19966;-38
2023/05/11 03:44:39;;;;;;;;;;;12.00;99.90;;;;;;5105526;27;19949;-38
2023/05/11 03:47:05;;;;;;;;;;;12.00;99.90;;;;;;5085499;28;19952;-38
2023/05/11 03:49:33;;;;;;;;;;;12.00;99.90;;;;;;5100183;27;20512;-38
2023/05/11 03:52:00;;;;;;;;;;;12.00;99.90;;;;;;5106316;28;19936;-38
2023/05/11 03:54:27;;;;;;;;;;;11.90;99.90;;;;;;5104516;28;19939;-36
2023/05/11 03:56:53;;;;;;;;;;;11.90;99.90;;;;;;5109596;28;19994;-37
2023/05/11 03:59:20;;;;;;;;;;;11.90;99.90;;;;;;5096919;28;20025;-38
2023/05/11 04:01:46;;;;;;;;;;;11.90;99.90;;;;;;5079580;28;19940;-38
2023/05/11 04:04:13;;;;;;;;;;;12.00;99.90;;;;;;5100057;27;20406;-38
2023/05/11 04:06:41;;;;;;;;;;;12.00;99.90;;;;;;5094518;28;20369;-37
2023/05/11 04:09:08;;;;;;;;;;;12.00;99.90;;;;;;5114030;27;20392;-36
2023/05/11 04:11:36;;;;;;;;;;;12.00;99.90;;;;;;5093641;28;19934;-38
2023/05/11 04:14:02;;;;;;;;;;;12.00;99.90;;;;;;5097427;28;19941;-39
2023/05/11 04:16:29;;;;;;;;;;;11.90;99.90;;;;;;5104701;28;19924;-38
2023/05/11 04:18:55;;;;;;;;;;;11.90;99.90;;;;;;5083843;28;19940;-38
2023/05/11 04:21:22;;;;;;;;;;;11.90;99.90;;;;;;5095859;28;19936;-38
2023/05/11 04:23:50;;;;;;;;;;;11.90;99.90;;;;;;5077728;28;20383;-38
2023/05/11 04:26:17;;;;;;;;;;;11.90;99.90;;;;;;5094079;28;20325;-38
2023/05/11 04:28:43;;;;;;;;;;;11.90;99.90;;;;;;5100123;28;20418;-37
2023/05/11 04:31:10;;;;;;;;;;;11.90;99.90;;;;;;5099734;27;20336;-38
2023/05/11 04:33:37;;;;;;;;;;;11.90;99.90;;;;;;5077824;28;20457;-38
2023/05/11 04:36:04;;;;;;;;;;;11.90;99.90;;;;;;5098508;28;20358;-38
2023/05/11 04:38:30;;;;;;;;;;;11.90;99.90;;;;;;5083704;28;20001;-37
2023/05/11 04:40:59;;;;;;;;;;;11.90;99.90;;;;;;5105361;28;19958;-38
2023/05/11 04:43:25;;;;;;;;;;;11.90;99.90;;;;;;5097716;28;19985;-38
2023/05/11 04:45:52;;;;;;;;;;;12.00;99.90;;;;;;5085941;28;20491;-38
2023/05/11 04:48:19;;;;;;;;;;;11.90;99.90;;;;;;5111635;28;19952;-38
2023/05/11 04:50:45;;;;;;;;;;;11.90;99.90;;;;;;5098178;28;19961;-40
2023/05/11 04:53:12;;;;;;;;;;;12.00;99.90;;;;;;5097063;28;19986;-38
2023/05/11 04:55:39;;;;;;;;;;;11.90;99.90;;;;;;5105965;27;19941;-38
2023/05/11 04:58:07;;;;;;;;;;;12.00;99.90;;;;;;5094138;28;19985;-38
2023/05/11 05:00:35;;;;;;;;;;;11.90;99.90;;;;;;5090343;28;19991;-40
2023/05/11 05:03:01;;;;;;;;;;;11.90;99.90;;;;;;5114426;28;19980;-38
2023/05/11 05:05:28;;;;;;;;;;;11.90;99.90;;;;;;5088050;28;19987;-37
2023/05/11 05:07:55;;;;;;;;;;;11.90;99.90;;;;;;5094028;28;20002;-38
2023/05/11 05:10:22;;;;;;;;;;;11.90;99.90;;;;;;5096831;28;19990;-37
2023/05/11 05:12:48;;;;;;;;;;;11.90;99.90;;;;;;5099373;28;20027;-38
2023/05/11 05:15:16;;;;;;;;;;;12.00;99.90;;;;;;5078464;28;19999;-37
2023/05/11 05:17:43;;;;;;;;;;;12.00;99.90;;;;;;5101991;28;20040;-38
2023/05/11 05:20:10;;;;;;;;;;;12.00;99.90;;;;;;5081374;28;20464;-37
2023/05/11 05:22:37;;;;;;;;;;;11.90;99.90;;;;;;5076787;28;19947;-38
2023/05/11 05:25:03;;;;;;;;;;;12.00;99.90;;;;;;5103679;28;19993;-37
2023/05/11 05:27:31;;;;;;;;;;;12.00;99.90;;;;;;5078957;27;20002;-37
2023/05/11 05:29:58;;;;;;;;;;;12.00;99.90;;;;;;5098449;27;20397;-38
2023/05/11 05:32:26;;;;;;;;;;;12.00;99.90;;;;;;5104401;27;19952;-37
2023/05/11 05:34:52;;;;;;;;;;;12.00;99.90;;;;;;5084200;28;19941;-37
2023/05/11 05:37:19;;;;;;;;;;;12.00;99.90;;;;;;5108363;27;20004;-37
2023/05/11 05:39:46;;;;;;;;;;;12.00;99.90;;;;;;5094771;28;19938;-37
2023/05/11 05:42:12;;;;;;;;;;;12.10;99.90;;;;;;5098914;27;20016;-37
2023/05/11 05:44:39;;;;;;;;;;;12.10;99.90;;;;;;5100003;27;19951;-37
2023/05/11 05:47:06;;;;;;;;;;;12.10;99.90;;;;;;5097906;28;19960;-37
2023/05/11 05:49:36;;;;;;;;;;;12.20;99.90;;;;;;5079726;28;19953;-38
2023/05/11 05:52:03;;;;;;;;;;;12.30;99.90;;;;;;5105772;27;20372;-37
2023/05/11 05:54:30;;;;;;;;;;;12.30;99.90;;;;;;5086976;28;20042;-37
2023/05/11 05:56:56;;;;;;;;;;;12.30;99.90;;;;;;5100670;28;19938;-38
2023/05/11 05:59:23;;;;;;;;;;;12.30;99.90;;;;;;5103450;27;19937;-36
2023/05/11 06:01:50;;;;;;;;;;;12.30;99.90;;;;;;5108254;28;19946;-38
2023/05/11 06:04:17;;;;;;;;;;;12.30;99.90;;;;;;5102545;27;20024;-34
2023/05/11 06:06:45;;;;;;;;;;;12.30;99.90;;;;;;5085194;28;19954;-38
2023/05/11 06:09:11;;;;;;;;;;;12.40;99.90;;;;;;5098706;28;19998;-37
2023/05/11 06:11:38;;;;;;;;;;;12.40;99.90;;;;;;5075055;28;20042;-38
2023/05/11 06:14:05;;;;;;;;;;;12.40;99.90;;;;;;5091128;28;19941;-37
2023/05/11 06:16:31;;;;;;;;;;;12.40;99.90;;;;;;5091584;28;19952;-38
2023/05/11 06:18:58;;;;;;;;;;;12.50;99.90;;;;;;5099801;28;19964;-38
2023/05/11 06:21:25;;;;;;;;;;;12.50;99.90;;;;;;5112214;28;20356;-38
2023/05/11 06:23:53;;;;;;;;;;;12.50;99.90;;;;;;5113168;28;20141;-38
2023/05/11 06:26:20;;;;;;;;;;;12.50;99.90;;;;;;5113019;28;19960;-37
2023/05/11 06:28:46;;;;;;;;;;;12.50;99.90;;;;;;5111680;28;19955;-38
2023/05/11 06:31:13;;;;;;;;;;;12.50;99.90;;;;;;5095166;28;19966;-39
2023/05/11 06:33:40;;;;;;;;;;;12.60;99.90;;;;;;5093557;28;20315;-36
2023/05/11 06:36:07;;;;;;;;;;;12.60;99.90;;;;;;5112986;28;19944;-37
2023/05/11 06:38:33;;;;;;;;;;;12.60;99.90;;;;;;5112925;28;19941;-38
2023/05/11 06:41:01;;;;;;;;;;;12.60;99.90;;;;;;5112738;28;20013;-38
2023/05/11 06:43:28;;;;;;;;;;;12.70;99.90;;;;;;5111609;28;19944;-37
2023/05/11 06:45:55;;;;;;;;;;;12.70;99.90;;;;;;5094352;28;19940;-38
2023/05/11 06:48:24;;;;;;;;;;;12.70;99.90;;;;;;5112820;28;19965;-37
2023/05/11 06:50:51;;;;;;;;;;;12.60;99.90;;;;;;5112832;28;19941;-37
2023/05/11 06:53:18;;;;;;;;;;;12.70;99.90;;;;;;5087536;28;20442;-37
2023/05/11 06:55:44;;;;;;;;;;;12.70;99.90;;;;;;5092420;28;19996;-38
2023/05/11 06:58:12;;;;;;;;;;;12.70;99.90;;;;;;5093702;28;20307;-38
2023/05/11 07:00:39;;;;;;;;;;;12.80;99.90;;;;;;5096917;27;19993;-37
2023/05/11 07:03:06;;;;;;;;;;;12.80;99.90;;;;;;5078595;28;19980;-37
2023/05/11 07:05:32;;;;;;;;;;;12.80;99.90;;;;;;5096812;28;19940;-38
2023/05/11 07:07:59;;;;;;;;;;;12.80;99.90;;;;;;5096472;28;19973;-38
2023/05/11 07:10:26;;;;;;;;;;;12.80;99.90;;;;;;5100975;27;19951;-37
2023/05/11 07:12:52;;;;;;;;;;;12.80;99.90;;;;;;5115478;28;19945;-35
2023/05/11 07:15:21;;;;;;;;;;;12.70;99.90;;;;;;5116948;28;20381;-37
2023/05/11 07:17:48;;;;;;;;;;;12.80;99.90;;;;;;5116850;28;19941;-36
2023/05/11 07:20:15;;;;;;;;;;;12.80;99.90;;;;;;5116777;28;19940;-35
2023/05/11 07:22:41;;;;;;;;;;;12.80;99.90;;;;;;5115735;28;19937;-35
2023/05/11 07:25:09;;;;;;;;;;;12.80;99.90;;;;;;5116615;28;19944;-36
2023/05/11 07:27:35;;;;;;;;;;;12.80;99.90;;;;;;5097986;28;19960;-36
2023/05/11 07:30:03;;;;;;;;;;;12.80;99.90;;;;;;5116253;28;20398;-37
2023/05/11 07:32:31;;;;;;;;;;;12.90;99.90;;;;;;5115375;28;19992;-36
2023/05/11 07:34:57;;;;;;;;;;;12.90;99.90;;;;;;5115855;27;19948;-38
2023/05/11 07:37:24;;;;;;;;;;;12.90;99.90;;;;;;5116426;28;19950;-37
2023/05/11 07:39:51;;;;;;;;;;;12.90;99.90;;;;;;5116234;28;19945;-37
2023/05/11 07:42:17;;;;;;;;;;;12.90;99.90;;;;;;5116159;28;20439;-38
2023/05/11 07:44:44;;;;;;;;;;;12.90;99.90;;;;;;5095900;28;20038;-38
2023/05/11 07:47:12;;;;;;;;;;;12.90;99.90;;;;;;5095900;28;19952;-36
2023/05/11 07:49:40;;;;;;;;;;;12.90;99.90;;;;;;5077845;28;20042;-37
2023/05/11 07:52:07;;;;;;;;;;;12.90;99.90;;;;;;5110266;28;19939;-36
2023/05/11 07:54:33;;;;;;;;;;;12.90;99.90;;;;;;5096232;28;19941;-38
2023/05/11 07:57:00;;;;;;;;;;;12.90;99.90;;;;;;5115792;28;19997;-37
2023/05/11 07:59:27;;;;;;;;;;;12.90;99.90;;;;;;5110447;28;19942;-37
2023/05/11 08:01:54;;;;;;;;;;;12.90;99.90;;;;;;5095723;28;19948;-37
2023/05/11 08:04:20;;;;;;;;;;;12.90;99.90;;;;;;5095428;28;19946;-37
2023/05/11 08:06:48;;;;;;;;;;;12.90;99.90;;;;;;5095312;28;20000;-37
2023/05/11 08:09:15;;;;;;;;;;;12.90;99.90;;;;;;5095872;28;19967;-36
2023/05/11 08:11:42;;;;;;;;;;;12.90;99.90;;;;;;5115255;28;19942;-36
2023/05/11 08:14:12;;;;;;;;;;;12.90;99.90;;;;;;5097909;28;20461;-37
2023/05/11 08:16:39;;;;;;;;;;;12.90;99.90;;;;;;5097615;28;20026;-37
2023/05/11 08:19:05;;;;;;;;;;;13.00;99.90;;;;;;5115560;28;19947;-36
2023/05/11 08:21:32;;;;;;;;;;;13.00;99.90;;;;;;5098992;28;20365;-36
2023/05/11 08:24:00;;;;;;;;;;;13.00;99.90;;;;;;5114779;28;19941;-36
2023/05/11 08:26:27;;;;;;;;;;;13.00;99.90;;;;;;5097580;28;19940;-36
2023/05/11 08:28:53;;;;;;;;;;;13.00;99.90;;;;;;5097345;28;20049;-37
2023/05/11 08:31:20;;;;;;;;;;;13.10;99.90;;;;;;5112643;28;19941;-39
2023/05/11 08:33:47;;;;;;;;;;;13.10;99.90;;;;;;5094870;28;19987;-38
2023/05/11 08:36:14;;;;;;;;;;;13.20;99.90;;;;;;5095007;28;19943;-38
2023/05/11 08:38:40;;;;;;;;;;;13.20;99.90;;;;;;5094718;28;20334;-37
2023/05/11 08:41:10;;;;;;;;;;;13.30;99.90;;;;;;5094244;28;20482;-36
2023/05/11 08:43:38;;;;;;;;;;;13.30;99.90;;;;;;5095095;28;19940;-38
2023/05/11 08:46:06;;;;;;;;;;;13.30;99.90;;;;;;5109138;28;19986;-35
2023/05/11 08:48:32;;;;;;;;;;;13.40;99.90;;;;;;5096707;28;19959;-36
2023/05/11 08:50:59;;;;;;;;;;;13.40;99.90;;;;;;5115004;28;19940;-36
2023/05/11 08:53:26;;;;;;;;;;;13.50;99.90;;;;;;5096227;28;20316;-37
2023/05/11 08:55:52;;;;;;;;;;;13.50;99.90;;;;;;5114921;28;19948;-39
2023/05/11 08:58:21;;;;;;;;;;;13.60;99.90;;;;;;5096747;28;19944;-37
2023/05/11 09:00:48;;;;;;;;;;;13.60;99.90;;;;;;5096895;28;19945;-38
2023/05/11 09:03:14;;;;;;;;;;;13.60;99.90;;;;;;5113927;28;19945;-38
2023/05/11 09:05:41;;;;;;;;;;;13.60;99.90;;;;;;5114061;28;19947;-37
2023/05/11 09:08:08;;;;;;;;;;;13.70;99.90;;;;;;5114596;28;20357;-38
2023/05/11 09:10:36;;;;;;;;;;;13.80;99.90;;;;;;5096548;28;19956;-38
2023/05/11 09:13:03;;;;;;;;;;;13.80;99.90;;;;;;5102348;28;19945;-36
2023/05/11 09:15:31;;;;;;;;;;;13.90;99.90;;;;;;5094272;28;20414;-36
2023/05/11 09:17:58;;;;;;;;;;;14.00;99.90;;;;;;5094093;27;19973;-35
2023/05/11 09:20:26;;;;;;;;;;;14.10;99.90;;;;;;5114328;28;19951;-36
2023/05/11 09:22:53;;;;;;;;;;;14.10;99.90;;;;;;5095177;28;19953;-36
2023/05/11 09:25:20;;;;;;;;;;;14.10;99.90;;;;;;5096218;28;19942;-36
2023/05/11 09:27:47;;;;;;;;;;;14.20;99.90;;;;;;5096522;28;19945;-36
2023/05/11 09:30:14;;;;;;;;;;;14.20;99.90;;;;;;5113004;28;19973;-35
2023/05/11 09:32:49;;;;;;;;;;;14.20;99.90;;;;;;5114243;28;19947;-36
2023/05/11 09:35:19;;;;;;;;;;;14.20;99.90;;;;;;5111940;28;19948;-35
2023/05/11 09:37:56;;;;;;;;;;;14.30;99.90;;;;;;5093360;28;20321;-35
2023/05/11 09:40:22;;;;;;;;;;;14.30;99.90;;;;;;5075690;27;19944;-34
2023/05/11 09:42:49;;;;;;;;;;;14.50;99.90;;;;;;5096297;27;19971;-36
2023/05/11 09:45:18;;;;;;;;;;;14.60;99.90;;;;;;5106781;27;19947;-35
2023/05/11 09:47:45;;;;;;;;;;;14.80;99.90;;;;;;5113620;28;20303;-36
2023/05/11 09:50:19;;;;;;;;;;;15.00;99.90;;;;;;5095567;28;20430;-35
2023/05/11 09:52:50;;;;;;;;;;;15.20;99.90;;;;;;5094201;28;20028;-36
2023/05/11 09:55:16;;;;;;;;;;;15.40;99.90;;;;;;5113959;28;20029;-35
2023/05/11 09:57:43;;;;;;;;;;;15.50;99.90;;;;;;5095928;28;19990;-35
2023/05/11 10:00:14;;;;;;;;;;;15.70;99.90;;;;;;5113674;28;20077;-35
2023/05/11 10:02:40;;;;;;;;;;;15.70;99.90;;;;;;5102655;28;19962;-36
2023/05/11 10:05:11;;;;;;;;;;;15.70;99.90;;;;;;5092967;28;19992;-35
2023/05/11 10:07:39;;;;;;;;;;;15.70;99.90;;;;;;5108626;27;20350;-36
2023/05/11 10:10:06;;;;;;;;;;;15.70;99.90;;;;;;5113335;28;19961;-35
2023/05/11 10:12:33;;;;;;;;;;;15.80;99.90;;;;;;5113458;28;19942;-36
2023/05/11 10:15:01;;;;;;;;;;;15.80;99.90;;;;;;5113400;28;20418;-35
2023/05/11 10:17:27;;;;;;;;;;;15.80;99.90;;;;;;5112144;28;20002;-36
2023/05/11 10:19:54;;;;;;;;;;;15.90;99.90;;;;;;5095445;28;19944;-36
2023/05/11 10:22:21;;;;;;;;;;;15.90;99.90;;;;;;5112187;28;19945;-36
2023/05/11 10:24:49;;;;;;;;;;;16.00;99.90;;;;;;5110835;28;19946;-35
2023/05/11 10:27:15;;;;;;;;;;;16.10;99.90;;;;;;5112821;28;19985;-36
2023/05/11 10:29:42;;;;;;;;;;;16.20;99.90;;;;;;5112433;28;19957;-36
2023/05/11 10:32:09;;;;;;;;;;;16.30;99.90;;;;;;5095066;28;19943;-36
2023/05/11 10:34:35;;;;;;;;;;;16.30;99.90;;;;;;5094375;28;19952;-36
2023/05/11 10:37:02;;;;;;;;;;;16.40;99.90;;;;;;5095412;28;19989;-36
2023/05/11 10:39:29;;;;;;;;;;;16.40;99.90;;;;;;5090123;28;19946;-36
2023/05/11 10:42:00;;;;;;;;;;;16.50;99.90;;;;;;5112640;28;19971;-36
2023/05/11 10:44:34;;;;;;;;;;;16.50;99.90;;;;;;5111647;28;20633;-36
2023/05/11 10:47:08;;;;;;;;;;;16.50;99.90;;;;;;5129009;27;19946;-37
2023/05/11 10:49:42;;;;;;;;;;;16.50;99.90;;;;;;5081015;28;19958;-37
2023/05/11 10:52:13;;;;;;;;;;;16.50;99.90;;;;;;5108634;28;19943;-37
2023/05/11 10:54:46;;;;;;;;;;;16.50;99.90;;;;;;5112851;28;19938;-37
2023/05/11 10:57:15;;;;;;;;;;;16.60;99.90;;;;;;5112827;28;19939;-37
2023/05/11 10:59:45;;;;;;;;;;;16.60;99.90;;;;;;5112467;28;19945;-37
2023/05/11 11:02:12;;;;;;;;;;;16.80;99.90;;;;;;5096455;28;19949;-37
2023/05/11 11:04:42;;;;;;;;;;;16.90;99.90;;;;;;5092448;28;20037;-37
2023/05/11 11:07:10;;;;;;;;;;;17.00;99.90;;;;;;5092718;28;19993;-38
2023/05/11 11:09:53;;;;;;;;;;;17.00;99.90;;;;;;5099295;28;19975;-37
2023/05/11 11:12:21;;;;;;;;;;;17.00;99.90;;;;;;5074201;28;20010;-37
2023/05/11 11:14:54;;;;;;;;;;;17.10;99.90;;;;;;5092678;28;20001;-38
2023/05/11 11:17:25;;;;;;;;;;;17.20;99.90;;;;;;5093742;28;19948;-37
2023/05/11 11:19:52;;;;;;;;;;;17.30;99.90;;;;;;5093944;28;19948;-37
2023/05/11 11:22:39;;;;;;;;;;;17.50;99.90;;;;;;5094694;28;19976;-37
2023/05/11 11:25:06;;;;;;;;;;;17.50;99.90;;;;;;5111826;28;19991;-37
2023/05/11 11:27:48;;;;;;;;;;;17.50;99.90;;;;;;5113038;28;19943;-38
2023/05/11 11:30:17;;;;;;;;;;;17.50;99.90;;;;;;5095110;28;19961;-38
2023/05/11 11:32:43;;;;;;;;;;;17.50;99.90;;;;;;5112908;28;20284;-38
2023/05/11 11:35:25;;;;;;;;;;;17.50;99.90;;;;;;5109695;28;19950;-38
2023/05/11 11:38:02;;;;;;;;;;;17.50;99.90;;;;;;5099246;28;19941;-37
2023/05/11 11:40:35;;;;;;;;;;;17.60;99.90;;;;;;5112579;28;20344;-38
2023/05/11 11:43:10;;;;;;;;;;;17.70;99.90;;;;;;5112245;28;20029;-39
2023/05/11 11:45:38;;;;;;;;;;;17.70;99.90;;;;;;5113942;28;19940;-39
2023/05/11 11:48:09;;;;;;;;;;;17.90;99.90;;;;;;5114662;27;19955;-39
2023/05/11 11:50:35;;;;;;;;;;;17.90;99.90;;;;;;5097260;28;19955;-37
2023/05/11 11:53:02;;;;;;;;;;;18.00;99.90;;;;;;5114885;27;19946;-37
2023/05/11 11:55:44;;;;;;;;;;;18.10;99.90;;;;;;5113672;28;19939;-38
2023/05/11 11:58:11;;;;;;;;;;;18.20;99.90;;;;;;5100726;27;19999;-38
2023/05/11 12:00:39;;;;;;;;;;;18.20;99.90;;;;;;5114844;28;19939;-37
2023/05/11 12:03:06;;;;;;;;;;;18.20;99.90;;;;;;5079964;28;20340;-37
2023/05/11 12:05:33;;;;;;;;;;;18.20;99.90;;;;;;5109420;28;19944;-39
2023/05/11 12:08:00;;;;;;;;;;;18.20;99.90;;;;;;5092166;28;20375;-37
2023/05/11 12:10:27;;;;;;;;;;;18.30;99.90;;;;;;5085988;28;19958;-37
2023/05/11 12:12:56;;;;;;;;;;;18.30;99.90;;;;;;5095215;28;19963;-38
2023/05/11 12:15:23;;;;;;;;;;;18.30;99.90;;;;;;5096649;28;20536;-37
2023/05/11 12:17:51;;;;;;;;;;;18.30;99.90;;;;;;5104867;28;19944;-37
2023/05/11 12:20:18;;;;;;;;;;;18.30;99.90;;;;;;5087798;28;20445;-38
2023/05/11 12:22:45;;;;;;;;;;;18.40;99.90;;;;;;5092814;28;19950;-38
2023/05/11 12:25:13;;;;;;;;;;;18.40;99.90;;;;;;5114208;28;19950;-39
2023/05/11 12:27:49;;;;;;;;;;;18.40;99.90;;;;;;5097113;28;19997;-38
2023/05/11 12:30:20;;;;;;;;;;;18.50;99.90;;;;;;5115235;28;20005;-38
2023/05/11 12:32:46;;;;;;;;;;;18.50;99.90;;;;;;5093572;28;19993;-38
2023/05/11 12:35:15;;;;;;;;;;;18.50;99.90;;;;;;5096981;28;20296;-38
2023/05/11 12:37:42;;;;;;;;;;;18.50;99.90;;;;;;5097140;27;19939;-38
2023/05/11 12:40:10;;;;;;;;;;;18.60;99.90;;;;;;5094846;28;20039;-38
2023/05/11 12:42:37;;;;;;;;;;;18.60;99.90;;;;;;5085295;28;20390;-38
2023/05/11 12:45:04;;;;;;;;;;;18.70;99.90;;;;;;5113839;27;19990;-37
2023/05/11 12:47:31;;;;;;;;;;;18.70;99.90;;;;;;5094923;28;20021;-38
2023/05/11 12:49:58;;;;;;;;;;;18.70;99.90;;;;;;5083277;28;19986;-38
2023/05/11 12:52:26;;;;;;;;;;;18.70;99.90;;;;;;5100621;28;19984;-38
2023/05/11 12:54:58;;;;;;;;;;;18.80;99.90;;;;;;5102825;28;19944;-37
2023/05/11 12:57:25;;;;;;;;;;;18.80;99.90;;;;;;5076948;28;20412;-38
2023/05/11 13:00:05;;;;;;;;;;;18.90;99.90;;;;;;5097741;27;20008;-38
2023/05/11 13:02:31;;;;;;;;;;;18.90;99.90;;;;;;5098519;28;19961;-38
2023/05/11 13:04:58;;;;;;;;;;;18.90;99.90;;;;;;5111618;28;19987;-39
2023/05/11 13:07:27;;;;;;;;;;;18.90;99.90;;;;;;5111742;27;19936;-38
2023/05/11 13:09:56;;;;;;;;;;;18.90;99.90;;;;;;5097780;28;19959;-38
2023/05/11 13:12:24;;;;;;;;;;;19.00;99.90;;;;;;5109898;28;19948;-38
2023/05/11 13:14:51;;;;;;;;;;;19.00;99.90;;;;;;5113061;28;19942;-38
2023/05/11 13:17:29;;;;;;;;;;;19.00;99.90;;;;;;5114876;27;19944;-39
2023/05/11 13:19:56;;;;;;;;;;;19.10;99.90;;;;;;5114474;28;19992;-39
2023/05/11 13:22:23;;;;;;;;;;;19.10;99.90;;;;;;5093193;28;19950;-39
2023/05/11 13:24:51;;;;;;;;;;;19.10;99.90;;;;;;5096607;28;19949;-39
2023/05/11 13:27:17;;;;;;;;;;;19.20;99.90;;;;;;5112706;28;19939;-38
2023/05/11 13:29:44;;;;;;;;;;;19.30;99.90;;;;;;5114293;28;19960;-38
2023/05/11 13:32:11;;;;;;;;;;;19.30;99.90;;;;;;5092193;28;20449;-38
2023/05/11 13:34:37;;;;;;;;;;;19.30;99.90;;;;;;5096120;28;20046;-37
2023/05/11 13:37:05;;;;;;;;;;;19.20;99.90;;;;;;5105536;28;19995;-37
2023/05/11 13:39:31;;;;;;;;;;;19.30;99.90;;;;;;5093714;28;20000;-37
2023/05/11 13:41:59;;;;;;;;;;;19.30;99.90;;;;;;5095514;28;19970;-38
2023/05/11 13:44:26;;;;;;;;;;;19.30;99.90;;;;;;5093350;28;20439;-37
2023/05/11 13:46:54;;;;;;;;;;;19.20;99.90;;;;;;5093276;28;19949;-38
2023/05/11 13:49:21;;;;;;;;;;;19.10;99.90;;;;;;5075687;28;19948;-38
2023/05/11 13:51:47;;;;;;;;;;;19.10;99.90;;;;;;5075006;28;19946;-38
2023/05/11 13:54:14;;;;;;;;;;;19.10;99.90;;;;;;5093177;28;19944;-39
2023/05/11 13:56:41;;;;;;;;;;;19.10;99.90;;;;;;5093384;28;19988;-38
2023/05/11 13:59:09;;;;;;;;;;;19.00;99.90;;;;;;5093178;28;19947;-38
2023/05/11 14:01:36;;;;;;;;;;;19.00;99.90;;;;;;5093988;27;19954;-38
2023/05/11 14:04:03;;;;;;;;;;;18.90;99.90;;;;;;5083011;28;20411;-38
2023/05/11 14:06:31;;;;;;;;;;;18.90;99.90;;;;;;5103014;28;19988;-38
2023/05/11 14:08:57;;;;;;;;;;;18.90;99.90;;;;;;5112896;28;19942;-38
2023/05/11 14:11:24;;;;;;;;;;;18.90;99.90;;;;;;5113375;28;19961;-39
2023/05/11 14:13:51;;;;;;;;;;;18.90;99.90;;;;;;5095625;28;19997;-37
2023/05/11 14:16:19;;;;;;;;;;;19.00;99.90;;;;;;5091246;28;20379;-38
2023/05/11 14:18:46;;;;;;;;;;;18.90;99.90;;;;;;5094407;28;19945;-38